sensor_id;sensor_type;location;lat;lon;timestamp;P1;durP1;ratioP1;P2;durP2;ratioP2
49834;SDS011;35729;52.090;13.162;2023-09-30T00:00:31;6.75;;;1.98;;
49834;SDS011;35729;52.090;13.162;2023-09-30T00:03:08;7.20;;;2.20;;
49834;SDS011;35729;52.090;13.162;2023-09-30T00:05:37;4.68;;;1.60;;
49834;SDS011;35729;52.090;13.162;2023-09-30T00:08:05;4.72;;;1.42;;
49834;SDS011;35729;52.090;13.162;2023-09-30T00:10:34;5.25;;;1.58;;
49834;SDS011;35729;52.090;13.162;2023-09-30T00:13:03;7.30;;;1.70;;
49834;SDS011;35729;52.090;13.162;2023-09-30T00:15:34;9.38;;;2.53;;
49834;SDS011;35729;52.090;13.162;2023-09-30T00:18:16;6.45;;;1.85;;
49834;SDS011;35729;52.090;13.162;2023-09-30T00:20:44;7.53;;;2.33;;
49834;SDS011;35729;52.090;13.162;2023-09-30T00:23:13;8.82;;;2.55;;
49834;SDS011;35729;52.090;13.162;2023-09-30T00:25:41;6.80;;;2.22;;
49834;SDS011;35729;52.090;13.162;2023-09-30T00:28:10;6.95;;;2.17;;
49834;SDS011;35729;52.090;13.162;2023-09-30T00:30:42;8.63;;;2.58;;
49834;SDS011;35729;52.090;13.162;2023-09-30T00:33:12;5.45;;;2.10;;
49834;SDS011;35729;52.090;13.162;2023-09-30T00:35:41;10.52;;;2.55;;
49834;SDS011;35729;52.090;13.162;2023-09-30T00:38:09;6.60;;;2.10;;
49834;SDS011;35729;52.090;13.162;2023-09-30T00:40:39;9.63;;;3.03;;
49834;SDS011;35729;52.090;13.162;2023-09-30T00:43:17;7.85;;;2.70;;
49834;SDS011;35729;52.090;13.162;2023-09-30T00:45:49;8.95;;;2.55;;
49834;SDS011;35729;52.090;13.162;2023-09-30T00:48:24;8.70;;;2.65;;
49834;SDS011;35729;52.090;13.162;2023-09-30T00:50:53;6.28;;;2.67;;
49834;SDS011;35729;52.090;13.162;2023-09-30T00:53:22;6.70;;;2.35;;
49834;SDS011;35729;52.090;13.162;2023-09-30T00:55:51;7.90;;;2.40;;
49834;SDS011;35729;52.090;13.162;2023-09-30T00:58:28;11.25;;;2.58;;
49834;SDS011;35729;52.090;13.162;2023-09-30T01:00:59;10.95;;;2.75;;
49834;SDS011;35729;52.090;13.162;2023-09-30T01:03:27;8.52;;;2.70;;
49834;SDS011;35729;52.090;13.162;2023-09-30T01:05:56;8.10;;;2.28;;
49834;SDS011;35729;52.090;13.162;2023-09-30T01:08:24;10.05;;;2.20;;
49834;SDS011;35729;52.090;13.162;2023-09-30T01:10:54;6.65;;;2.58;;
49834;SDS011;35729;52.090;13.162;2023-09-30T01:13:23;10.88;;;2.88;;
49834;SDS011;35729;52.090;13.162;2023-09-30T01:15:51;9.45;;;2.47;;
49834;SDS011;35729;52.090;13.162;2023-09-30T01:18:23;9.95;;;2.28;;
49834;SDS011;35729;52.090;13.162;2023-09-30T01:20:51;9.63;;;2.45;;
49834;SDS011;35729;52.090;13.162;2023-09-30T01:23:24;12.88;;;4.80;;
49834;SDS011;35729;52.090;13.162;2023-09-30T01:25:53;10.20;;;2.40;;
49834;SDS011;35729;52.090;13.162;2023-09-30T01:28:21;16.88;;;3.70;;
49834;SDS011;35729;52.090;13.162;2023-09-30T01:30:51;10.05;;;2.90;;
49834;SDS011;35729;52.090;13.162;2023-09-30T01:33:20;10.68;;;3.38;;
49834;SDS011;35729;52.090;13.162;2023-09-30T01:35:48;10.25;;;2.90;;
49834;SDS011;35729;52.090;13.162;2023-09-30T01:38:17;13.45;;;2.92;;
49834;SDS011;35729;52.090;13.162;2023-09-30T01:40:48;9.55;;;2.55;;
49834;SDS011;35729;52.090;13.162;2023-09-30T01:43:17;9.80;;;2.90;;
49834;SDS011;35729;52.090;13.162;2023-09-30T01:45:45;10.88;;;2.92;;
49834;SDS011;35729;52.090;13.162;2023-09-30T01:48:14;10.20;;;3.15;;
49834;SDS011;35729;52.090;13.162;2023-09-30T01:50:43;14.05;;;3.15;;
49834;SDS011;35729;52.090;13.162;2023-09-30T01:53:11;10.55;;;2.72;;
49834;SDS011;35729;52.090;13.162;2023-09-30T01:55:39;11.43;;;3.10;;
49834;SDS011;35729;52.090;13.162;2023-09-30T01:58:18;15.35;;;2.83;;
49834;SDS011;35729;52.090;13.162;2023-09-30T02:00:52;13.30;;;3.25;;
49834;SDS011;35729;52.090;13.162;2023-09-30T02:03:21;13.48;;;2.92;;
49834;SDS011;35729;52.090;13.162;2023-09-30T02:05:50;8.73;;;2.97;;
49834;SDS011;35729;52.090;13.162;2023-09-30T02:08:18;9.82;;;2.83;;
49834;SDS011;35729;52.090;13.162;2023-09-30T02:10:47;13.77;;;4.05;;
49834;SDS011;35729;52.090;13.162;2023-09-30T02:13:18;16.67;;;3.70;;
49834;SDS011;35729;52.090;13.162;2023-09-30T02:15:47;8.90;;;3.33;;
49834;SDS011;35729;52.090;13.162;2023-09-30T02:18:13;11.95;;;3.38;;
49834;SDS011;35729;52.090;13.162;2023-09-30T02:20:41;14.68;;;3.83;;
49834;SDS011;35729;52.090;13.162;2023-09-30T02:23:10;8.90;;;2.80;;
49834;SDS011;35729;52.090;13.162;2023-09-30T02:25:41;11.02;;;3.30;;
49834;SDS011;35729;52.090;13.162;2023-09-30T02:28:09;16.00;;;3.33;;
49834;SDS011;35729;52.090;13.162;2023-09-30T02:30:40;12.35;;;2.97;;
49834;SDS011;35729;52.090;13.162;2023-09-30T02:33:09;10.57;;;3.33;;
49834;SDS011;35729;52.090;13.162;2023-09-30T02:35:37;10.65;;;2.75;;
49834;SDS011;35729;52.090;13.162;2023-09-30T02:38:06;12.20;;;3.05;;
49834;SDS011;35729;52.090;13.162;2023-09-30T02:40:36;11.52;;;2.53;;
49834;SDS011;35729;52.090;13.162;2023-09-30T02:43:05;12.77;;;3.38;;
49834;SDS011;35729;52.090;13.162;2023-09-30T02:45:34;11.70;;;3.75;;
49834;SDS011;35729;52.090;13.162;2023-09-30T02:48:05;9.60;;;3.28;;
49834;SDS011;35729;52.090;13.162;2023-09-30T02:50:34;11.63;;;3.28;;
49834;SDS011;35729;52.090;13.162;2023-09-30T02:53:02;10.23;;;3.05;;
49834;SDS011;35729;52.090;13.162;2023-09-30T02:55:31;7.80;;;2.85;;
49834;SDS011;35729;52.090;13.162;2023-09-30T02:57:59;14.35;;;3.25;;
49834;SDS011;35729;52.090;13.162;2023-09-30T03:00:28;11.90;;;3.13;;
49834;SDS011;35729;52.090;13.162;2023-09-30T03:02:59;13.95;;;3.42;;
49834;SDS011;35729;52.090;13.162;2023-09-30T03:05:32;14.23;;;3.22;;
49834;SDS011;35729;52.090;13.162;2023-09-30T03:08:00;12.73;;;3.45;;
49834;SDS011;35729;52.090;13.162;2023-09-30T03:10:29;11.38;;;4.18;;
49834;SDS011;35729;52.090;13.162;2023-09-30T03:12:58;14.85;;;3.60;;
49834;SDS011;35729;52.090;13.162;2023-09-30T03:15:27;13.93;;;3.53;;
49834;SDS011;35729;52.090;13.162;2023-09-30T03:17:56;11.80;;;2.78;;
49834;SDS011;35729;52.090;13.162;2023-09-30T03:20:25;12.02;;;3.08;;
49834;SDS011;35729;52.090;13.162;2023-09-30T03:22:56;11.18;;;3.30;;
49834;SDS011;35729;52.090;13.162;2023-09-30T03:25:25;12.60;;;2.97;;
49834;SDS011;35729;52.090;13.162;2023-09-30T03:27:55;11.50;;;3.35;;
49834;SDS011;35729;52.090;13.162;2023-09-30T03:30:24;9.50;;;3.08;;
49834;SDS011;35729;52.090;13.162;2023-09-30T03:32:54;11.63;;;2.95;;
49834;SDS011;35729;52.090;13.162;2023-09-30T03:35:23;12.77;;;3.83;;
49834;SDS011;35729;52.090;13.162;2023-09-30T03:37:51;10.20;;;3.10;;
49834;SDS011;35729;52.090;13.162;2023-09-30T03:40:23;12.48;;;3.22;;
49834;SDS011;35729;52.090;13.162;2023-09-30T03:42:54;9.63;;;2.97;;
49834;SDS011;35729;52.090;13.162;2023-09-30T03:45:23;14.45;;;3.72;;
49834;SDS011;35729;52.090;13.162;2023-09-30T03:47:52;12.82;;;4.05;;
49834;SDS011;35729;52.090;13.162;2023-09-30T03:50:21;15.77;;;3.85;;
49834;SDS011;35729;52.090;13.162;2023-09-30T03:52:51;8.48;;;2.75;;
49834;SDS011;35729;52.090;13.162;2023-09-30T03:55:32;13.65;;;3.10;;
49834;SDS011;35729;52.090;13.162;2023-09-30T03:58:02;11.75;;;3.72;;
49834;SDS011;35729;52.090;13.162;2023-09-30T04:00:31;11.40;;;4.50;;
49834;SDS011;35729;52.090;13.162;2023-09-30T04:03:00;10.23;;;3.22;;
49834;SDS011;35729;52.090;13.162;2023-09-30T04:05:29;14.23;;;3.53;;
49834;SDS011;35729;52.090;13.162;2023-09-30T04:08:01;16.92;;;3.58;;
49834;SDS011;35729;52.090;13.162;2023-09-30T04:10:33;14.85;;;3.53;;
49834;SDS011;35729;52.090;13.162;2023-09-30T04:13:02;14.13;;;3.75;;
49834;SDS011;35729;52.090;13.162;2023-09-30T04:15:30;13.20;;;3.53;;
49834;SDS011;35729;52.090;13.162;2023-09-30T04:18:00;14.38;;;3.97;;
49834;SDS011;35729;52.090;13.162;2023-09-30T04:20:30;9.55;;;2.90;;
49834;SDS011;35729;52.090;13.162;2023-09-30T04:22:59;13.23;;;3.15;;
49834;SDS011;35729;52.090;13.162;2023-09-30T04:25:27;14.15;;;2.95;;
49834;SDS011;35729;52.090;13.162;2023-09-30T04:27:59;18.58;;;3.83;;
49834;SDS011;35729;52.090;13.162;2023-09-30T04:30:29;13.02;;;3.53;;
49834;SDS011;35729;52.090;13.162;2023-09-30T04:32:58;17.42;;;3.40;;
49834;SDS011;35729;52.090;13.162;2023-09-30T04:35:27;15.30;;;3.47;;
49834;SDS011;35729;52.090;13.162;2023-09-30T04:37:56;13.30;;;3.60;;
49834;SDS011;35729;52.090;13.162;2023-09-30T04:40:26;9.77;;;3.45;;
49834;SDS011;35729;52.090;13.162;2023-09-30T04:42:55;14.55;;;4.38;;
49834;SDS011;35729;52.090;13.162;2023-09-30T04:45:27;13.27;;;3.53;;
49834;SDS011;35729;52.090;13.162;2023-09-30T04:47:55;14.40;;;3.22;;
49834;SDS011;35729;52.090;13.162;2023-09-30T04:50:24;17.52;;;3.40;;
49834;SDS011;35729;52.090;13.162;2023-09-30T04:52:53;15.38;;;3.70;;
49834;SDS011;35729;52.090;13.162;2023-09-30T04:55:22;15.38;;;3.53;;
49834;SDS011;35729;52.090;13.162;2023-09-30T04:57:51;19.85;;;4.03;;
49834;SDS011;35729;52.090;13.162;2023-09-30T05:00:20;11.77;;;3.25;;
49834;SDS011;35729;52.090;13.162;2023-09-30T05:02:52;16.27;;;4.03;;
49834;SDS011;35729;52.090;13.162;2023-09-30T05:07:53;16.05;;;3.25;;
49834;SDS011;35729;52.090;13.162;2023-09-30T05:10:23;16.42;;;3.70;;
49834;SDS011;35729;52.090;13.162;2023-09-30T05:12:51;11.38;;;3.30;;
49834;SDS011;35729;52.090;13.162;2023-09-30T05:15:20;12.40;;;4.18;;
49834;SDS011;35729;52.090;13.162;2023-09-30T05:17:53;17.15;;;3.72;;
49834;SDS011;35729;52.090;13.162;2023-09-30T05:20:21;16.38;;;3.97;;
49834;SDS011;35729;52.090;13.162;2023-09-30T05:22:50;12.85;;;3.58;;
49834;SDS011;35729;52.090;13.162;2023-09-30T05:25:18;16.40;;;3.70;;
49834;SDS011;35729;52.090;13.162;2023-09-30T05:27:51;12.77;;;2.95;;
49834;SDS011;35729;52.090;13.162;2023-09-30T05:30:19;13.18;;;3.65;;
49834;SDS011;35729;52.090;13.162;2023-09-30T05:32:48;12.38;;;4.20;;
49834;SDS011;35729;52.090;13.162;2023-09-30T05:35:20;15.20;;;4.97;;
49834;SDS011;35729;52.090;13.162;2023-09-30T05:37:49;14.52;;;3.78;;
49834;SDS011;35729;52.090;13.162;2023-09-30T05:40:19;12.18;;;4.25;;
49834;SDS011;35729;52.090;13.162;2023-09-30T05:42:52;14.32;;;3.88;;
49834;SDS011;35729;52.090;13.162;2023-09-30T05:45:23;14.73;;;4.40;;
49834;SDS011;35729;52.090;13.162;2023-09-30T05:47:51;13.25;;;3.83;;
49834;SDS011;35729;52.090;13.162;2023-09-30T05:50:24;12.50;;;3.75;;
49834;SDS011;35729;52.090;13.162;2023-09-30T05:52:52;14.98;;;4.13;;
49834;SDS011;35729;52.090;13.162;2023-09-30T05:55:22;12.15;;;3.80;;
49834;SDS011;35729;52.090;13.162;2023-09-30T05:57:51;9.38;;;4.00;;
49834;SDS011;35729;52.090;13.162;2023-09-30T06:00:20;12.30;;;4.00;;
49834;SDS011;35729;52.090;13.162;2023-09-30T06:02:49;17.83;;;4.45;;
49834;SDS011;35729;52.090;13.162;2023-09-30T06:05:18;14.82;;;4.80;;
49834;SDS011;35729;52.090;13.162;2023-09-30T06:07:50;15.90;;;4.03;;
49834;SDS011;35729;52.090;13.162;2023-09-30T06:10:19;15.63;;;4.75;;
49834;SDS011;35729;52.090;13.162;2023-09-30T06:12:48;16.63;;;4.88;;
49834;SDS011;35729;52.090;13.162;2023-09-30T06:15:20;11.60;;;3.97;;
49834;SDS011;35729;52.090;13.162;2023-09-30T06:17:51;13.80;;;4.78;;
49834;SDS011;35729;52.090;13.162;2023-09-30T06:20:20;16.25;;;4.95;;
49834;SDS011;35729;52.090;13.162;2023-09-30T06:22:53;17.98;;;4.97;;
49834;SDS011;35729;52.090;13.162;2023-09-30T06:25:22;16.83;;;4.25;;
49834;SDS011;35729;52.090;13.162;2023-09-30T06:27:52;17.10;;;5.20;;
49834;SDS011;35729;52.090;13.162;2023-09-30T06:30:22;14.98;;;4.65;;
49834;SDS011;35729;52.090;13.162;2023-09-30T06:32:54;19.35;;;5.43;;
49834;SDS011;35729;52.090;13.162;2023-09-30T06:35:23;16.55;;;4.30;;
49834;SDS011;35729;52.090;13.162;2023-09-30T06:37:54;11.73;;;4.05;;
49834;SDS011;35729;52.090;13.162;2023-09-30T06:40:23;15.00;;;4.47;;
49834;SDS011;35729;52.090;13.162;2023-09-30T06:42:51;14.32;;;4.80;;
49834;SDS011;35729;52.090;13.162;2023-09-30T06:45:19;15.50;;;4.82;;
49834;SDS011;35729;52.090;13.162;2023-09-30T06:47:48;9.15;;;3.83;;
49834;SDS011;35729;52.090;13.162;2023-09-30T06:50:18;17.73;;;4.70;;
49834;SDS011;35729;52.090;13.162;2023-09-30T06:52:47;13.23;;;5.45;;
49834;SDS011;35729;52.090;13.162;2023-09-30T06:55:24;17.17;;;4.38;;
49834;SDS011;35729;52.090;13.162;2023-09-30T06:58:06;14.27;;;4.05;;
49834;SDS011;35729;52.090;13.162;2023-09-30T07:00:35;16.83;;;5.05;;
49834;SDS011;35729;52.090;13.162;2023-09-30T07:03:04;15.90;;;4.60;;
49834;SDS011;35729;52.090;13.162;2023-09-30T07:05:35;13.38;;;4.35;;
49834;SDS011;35729;52.090;13.162;2023-09-30T07:08:04;13.63;;;3.70;;
49834;SDS011;35729;52.090;13.162;2023-09-30T07:10:35;11.60;;;4.13;;
49834;SDS011;35729;52.090;13.162;2023-09-30T07:13:04;19.10;;;4.55;;
49834;SDS011;35729;52.090;13.162;2023-09-30T07:15:33;13.55;;;3.40;;
49834;SDS011;35729;52.090;13.162;2023-09-30T07:18:02;14.30;;;3.50;;
49834;SDS011;35729;52.090;13.162;2023-09-30T07:20:31;17.30;;;3.92;;
49834;SDS011;35729;52.090;13.162;2023-09-30T07:23:00;14.32;;;3.78;;
49834;SDS011;35729;52.090;13.162;2023-09-30T07:25:30;9.10;;;2.85;;
49834;SDS011;35729;52.090;13.162;2023-09-30T07:28:02;21.15;;;4.45;;
49834;SDS011;35729;52.090;13.162;2023-09-30T07:30:36;14.85;;;2.90;;
49834;SDS011;35729;52.090;13.162;2023-09-30T07:33:05;13.52;;;3.75;;
49834;SDS011;35729;52.090;13.162;2023-09-30T07:35:33;14.05;;;3.42;;
49834;SDS011;35729;52.090;13.162;2023-09-30T07:38:03;12.98;;;3.50;;
49834;SDS011;35729;52.090;13.162;2023-09-30T07:40:32;18.85;;;3.88;;
49834;SDS011;35729;52.090;13.162;2023-09-30T07:43:03;10.43;;;2.75;;
49834;SDS011;35729;52.090;13.162;2023-09-30T07:45:31;12.25;;;3.90;;
49834;SDS011;35729;52.090;13.162;2023-09-30T07:48:00;11.85;;;3.25;;
49834;SDS011;35729;52.090;13.162;2023-09-30T07:50:29;15.75;;;3.30;;
49834;SDS011;35729;52.090;13.162;2023-09-30T07:52:59;15.57;;;3.17;;
49834;SDS011;35729;52.090;13.162;2023-09-30T07:55:27;15.15;;;2.97;;
49834;SDS011;35729;52.090;13.162;2023-09-30T07:58:05;15.38;;;3.10;;
49834;SDS011;35729;52.090;13.162;2023-09-30T08:00:40;14.00;;;2.95;;
49834;SDS011;35729;52.090;13.162;2023-09-30T08:03:10;14.50;;;3.38;;
49834;SDS011;35729;52.090;13.162;2023-09-30T08:05:39;14.93;;;3.15;;
49834;SDS011;35729;52.090;13.162;2023-09-30T08:08:07;15.10;;;3.13;;
49834;SDS011;35729;52.090;13.162;2023-09-30T08:10:36;11.48;;;3.35;;
49834;SDS011;35729;52.090;13.162;2023-09-30T08:13:07;16.92;;;3.30;;
49834;SDS011;35729;52.090;13.162;2023-09-30T08:15:35;15.38;;;2.92;;
49834;SDS011;35729;52.090;13.162;2023-09-30T08:18:04;12.27;;;2.97;;
49834;SDS011;35729;52.090;13.162;2023-09-30T08:20:33;16.33;;;3.45;;
49834;SDS011;35729;52.090;13.162;2023-09-30T08:23:02;15.85;;;3.08;;
49834;SDS011;35729;52.090;13.162;2023-09-30T08:25:31;11.57;;;2.92;;
49834;SDS011;35729;52.090;13.162;2023-09-30T08:27:59;16.90;;;3.05;;
49834;SDS011;35729;52.090;13.162;2023-09-30T08:30:30;11.90;;;2.70;;
49834;SDS011;35729;52.090;13.162;2023-09-30T08:33:01;16.80;;;3.17;;
49834;SDS011;35729;52.090;13.162;2023-09-30T08:35:34;12.93;;;3.17;;
49834;SDS011;35729;52.090;13.162;2023-09-30T08:38:03;12.98;;;3.03;;
49834;SDS011;35729;52.090;13.162;2023-09-30T08:40:32;12.65;;;3.30;;
49834;SDS011;35729;52.090;13.162;2023-09-30T08:43:00;13.18;;;3.53;;
49834;SDS011;35729;52.090;13.162;2023-09-30T08:45:34;11.00;;;3.65;;
49834;SDS011;35729;52.090;13.162;2023-09-30T08:48:07;13.07;;;2.80;;
49834;SDS011;35729;52.090;13.162;2023-09-30T08:50:36;13.35;;;3.55;;
49834;SDS011;35729;52.090;13.162;2023-09-30T08:53:08;14.40;;;3.63;;
49834;SDS011;35729;52.090;13.162;2023-09-30T08:55:38;13.10;;;2.85;;
49834;SDS011;35729;52.090;13.162;2023-09-30T08:58:09;14.48;;;3.92;;
49834;SDS011;35729;52.090;13.162;2023-09-30T09:00:42;14.20;;;3.42;;
49834;SDS011;35729;52.090;13.162;2023-09-30T09:03:10;15.68;;;3.17;;
49834;SDS011;35729;52.090;13.162;2023-09-30T09:05:39;15.73;;;4.18;;
49834;SDS011;35729;52.090;13.162;2023-09-30T09:08:07;16.60;;;3.22;;
49834;SDS011;35729;52.090;13.162;2023-09-30T09:10:38;9.45;;;2.80;;
49834;SDS011;35729;52.090;13.162;2023-09-30T09:13:22;14.27;;;3.50;;
49834;SDS011;35729;52.090;13.162;2023-09-30T09:18:38;11.77;;;2.78;;
49834;SDS011;35729;52.090;13.162;2023-09-30T09:21:10;12.07;;;3.17;;
49834;SDS011;35729;52.090;13.162;2023-09-30T09:23:39;15.45;;;2.60;;
49834;SDS011;35729;52.090;13.162;2023-09-30T09:26:09;12.63;;;2.75;;
49834;SDS011;35729;52.090;13.162;2023-09-30T09:28:39;13.32;;;2.92;;
49834;SDS011;35729;52.090;13.162;2023-09-30T09:31:23;14.52;;;2.80;;
49834;SDS011;35729;52.090;13.162;2023-09-30T09:33:52;10.27;;;2.53;;
49834;SDS011;35729;52.090;13.162;2023-09-30T09:36:21;10.30;;;2.22;;
49834;SDS011;35729;52.090;13.162;2023-09-30T09:39:08;8.90;;;2.55;;
49834;SDS011;35729;52.090;13.162;2023-09-30T09:41:48;10.38;;;3.03;;
49834;SDS011;35729;52.090;13.162;2023-09-30T09:44:19;6.10;;;2.03;;
49834;SDS011;35729;52.090;13.162;2023-09-30T09:46:51;8.50;;;2.53;;
49834;SDS011;35729;52.090;13.162;2023-09-30T09:49:20;5.18;;;1.95;;
49834;SDS011;35729;52.090;13.162;2023-09-30T09:51:49;11.18;;;3.45;;
49834;SDS011;35729;52.090;13.162;2023-09-30T09:54:19;10.48;;;2.80;;
49834;SDS011;35729;52.090;13.162;2023-09-30T09:56:50;9.68;;;2.95;;
49834;SDS011;35729;52.090;13.162;2023-09-30T09:59:22;13.05;;;3.38;;
49834;SDS011;35729;52.090;13.162;2023-09-30T10:01:54;9.73;;;2.38;;
49834;SDS011;35729;52.090;13.162;2023-09-30T10:04:23;10.07;;;4.25;;
49834;SDS011;35729;52.090;13.162;2023-09-30T10:06:52;10.80;;;4.28;;
49834;SDS011;35729;52.090;13.162;2023-09-30T10:09:23;6.05;;;2.00;;
49834;SDS011;35729;52.090;13.162;2023-09-30T10:11:56;7.43;;;1.70;;
49834;SDS011;35729;52.090;13.162;2023-09-30T10:14:29;12.18;;;2.40;;
49834;SDS011;35729;52.090;13.162;2023-09-30T10:17:03;14.60;;;2.45;;
49834;SDS011;35729;52.090;13.162;2023-09-30T10:19:32;10.02;;;2.08;;
49834;SDS011;35729;52.090;13.162;2023-09-30T10:24:51;12.73;;;2.60;;
49834;SDS011;35729;52.090;13.162;2023-09-30T10:27:30;11.35;;;2.55;;
49834;SDS011;35729;52.090;13.162;2023-09-30T10:30:08;10.55;;;2.35;;
49834;SDS011;35729;52.090;13.162;2023-09-30T10:35:43;8.75;;;2.05;;
49834;SDS011;35729;52.090;13.162;2023-09-30T10:41:10;7.50;;;2.17;;
49834;SDS011;35729;52.090;13.162;2023-09-30T10:43:59;9.75;;;2.50;;
49834;SDS011;35729;52.090;13.162;2023-09-30T10:50:13;11.32;;;2.90;;
49834;SDS011;35729;52.090;13.162;2023-09-30T10:53:12;16.85;;;3.05;;
49834;SDS011;35729;52.090;13.162;2023-09-30T10:55:41;9.80;;;2.70;;
49834;SDS011;35729;52.090;13.162;2023-09-30T10:58:12;11.02;;;2.20;;
49834;SDS011;35729;52.090;13.162;2023-09-30T11:00:51;8.90;;;2.10;;
49834;SDS011;35729;52.090;13.162;2023-09-30T11:03:20;6.82;;;1.73;;
49834;SDS011;35729;52.090;13.162;2023-09-30T11:05:53;7.32;;;2.40;;
49834;SDS011;35729;52.090;13.162;2023-09-30T11:08:21;8.88;;;2.00;;
49834;SDS011;35729;52.090;13.162;2023-09-30T11:10:51;10.98;;;2.70;;
49834;SDS011;35729;52.090;13.162;2023-09-30T11:13:20;11.23;;;3.15;;
49834;SDS011;35729;52.090;13.162;2023-09-30T11:15:53;10.57;;;2.95;;
49834;SDS011;35729;52.090;13.162;2023-09-30T11:18:34;10.60;;;3.25;;
49834;SDS011;35729;52.090;13.162;2023-09-30T11:21:06;15.15;;;4.03;;
49834;SDS011;35729;52.090;13.162;2023-09-30T11:23:38;10.48;;;2.30;;
49834;SDS011;35729;52.090;13.162;2023-09-30T11:26:08;9.63;;;2.30;;
49834;SDS011;35729;52.090;13.162;2023-09-30T11:28:39;8.00;;;2.38;;
49834;SDS011;35729;52.090;13.162;2023-09-30T11:31:09;10.55;;;2.33;;
49834;SDS011;35729;52.090;13.162;2023-09-30T11:33:49;10.20;;;2.00;;
49834;SDS011;35729;52.090;13.162;2023-09-30T11:36:21;10.43;;;2.15;;
49834;SDS011;35729;52.090;13.162;2023-09-30T11:38:50;10.57;;;1.90;;
49834;SDS011;35729;52.090;13.162;2023-09-30T11:41:19;8.10;;;1.60;;
49834;SDS011;35729;52.090;13.162;2023-09-30T11:44:00;6.38;;;1.92;;
49834;SDS011;35729;52.090;13.162;2023-09-30T11:46:30;9.70;;;2.35;;
49834;SDS011;35729;52.090;13.162;2023-09-30T11:49:00;11.27;;;2.40;;
49834;SDS011;35729;52.090;13.162;2023-09-30T11:51:41;11.73;;;4.20;;
49834;SDS011;35729;52.090;13.162;2023-09-30T11:54:11;9.35;;;1.95;;
49834;SDS011;35729;52.090;13.162;2023-09-30T11:56:42;6.72;;;1.90;;
49834;SDS011;35729;52.090;13.162;2023-09-30T11:59:12;4.45;;;1.48;;
49834;SDS011;35729;52.090;13.162;2023-09-30T12:01:41;5.30;;;1.83;;
49834;SDS011;35729;52.090;13.162;2023-09-30T12:04:10;8.88;;;2.10;;
49834;SDS011;35729;52.090;13.162;2023-09-30T12:06:41;6.13;;;1.48;;
49834;SDS011;35729;52.090;13.162;2023-09-30T12:09:09;7.25;;;1.80;;
49834;SDS011;35729;52.090;13.162;2023-09-30T12:11:39;5.22;;;1.00;;
49834;SDS011;35729;52.090;13.162;2023-09-30T12:14:09;5.38;;;1.45;;
49834;SDS011;35729;52.090;13.162;2023-09-30T12:16:39;9.23;;;2.00;;
49834;SDS011;35729;52.090;13.162;2023-09-30T12:19:10;4.85;;;1.92;;
49834;SDS011;35729;52.090;13.162;2023-09-30T12:21:41;7.57;;;2.30;;
49834;SDS011;35729;52.090;13.162;2023-09-30T12:24:12;6.87;;;2.50;;
49834;SDS011;35729;52.090;13.162;2023-09-30T12:26:41;7.45;;;1.98;;
49834;SDS011;35729;52.090;13.162;2023-09-30T12:29:13;10.77;;;3.10;;
49834;SDS011;35729;52.090;13.162;2023-09-30T12:31:42;7.68;;;1.70;;
49834;SDS011;35729;52.090;13.162;2023-09-30T12:34:11;11.55;;;2.58;;
49834;SDS011;35729;52.090;13.162;2023-09-30T12:36:43;7.78;;;2.22;;
49834;SDS011;35729;52.090;13.162;2023-09-30T12:39:12;7.90;;;1.70;;
49834;SDS011;35729;52.090;13.162;2023-09-30T12:41:49;6.80;;;1.88;;
49834;SDS011;35729;52.090;13.162;2023-09-30T12:44:17;10.38;;;2.08;;
49834;SDS011;35729;52.090;13.162;2023-09-30T12:46:46;7.43;;;1.48;;
49834;SDS011;35729;52.090;13.162;2023-09-30T12:49:14;11.15;;;2.00;;
49834;SDS011;35729;52.090;13.162;2023-09-30T12:51:46;4.40;;;1.55;;
49834;SDS011;35729;52.090;13.162;2023-09-30T12:54:14;5.18;;;1.65;;
49834;SDS011;35729;52.090;13.162;2023-09-30T12:56:50;7.13;;;2.42;;
49834;SDS011;35729;52.090;13.162;2023-09-30T12:59:18;7.13;;;1.70;;
49834;SDS011;35729;52.090;13.162;2023-09-30T13:01:50;7.63;;;1.48;;
49834;SDS011;35729;52.090;13.162;2023-09-30T13:04:19;7.95;;;2.05;;
49834;SDS011;35729;52.090;13.162;2023-09-30T13:06:51;9.82;;;2.58;;
49834;SDS011;35729;52.090;13.162;2023-09-30T13:09:20;6.55;;;1.92;;
49834;SDS011;35729;52.090;13.162;2023-09-30T13:11:49;7.55;;;1.92;;
49834;SDS011;35729;52.090;13.162;2023-09-30T13:14:17;6.03;;;1.63;;
49834;SDS011;35729;52.090;13.162;2023-09-30T13:16:46;8.23;;;1.70;;
49834;SDS011;35729;52.090;13.162;2023-09-30T13:19:14;5.40;;;1.33;;
49834;SDS011;35729;52.090;13.162;2023-09-30T13:21:52;6.78;;;1.48;;
49834;SDS011;35729;52.090;13.162;2023-09-30T13:24:21;5.38;;;1.35;;
49834;SDS011;35729;52.090;13.162;2023-09-30T13:26:50;7.18;;;2.00;;
49834;SDS011;35729;52.090;13.162;2023-09-30T13:29:19;7.93;;;1.75;;
49834;SDS011;35729;52.090;13.162;2023-09-30T13:31:48;8.48;;;2.08;;
49834;SDS011;35729;52.090;13.162;2023-09-30T13:34:16;7.20;;;1.98;;
49834;SDS011;35729;52.090;13.162;2023-09-30T13:36:44;5.13;;;1.48;;
49834;SDS011;35729;52.090;13.162;2023-09-30T13:39:15;5.53;;;1.35;;
49834;SDS011;35729;52.090;13.162;2023-09-30T13:41:44;5.43;;;1.92;;
49834;SDS011;35729;52.090;13.162;2023-09-30T13:44:12;10.77;;;1.60;;
49834;SDS011;35729;52.090;13.162;2023-09-30T13:46:41;6.85;;;1.65;;
49834;SDS011;35729;52.090;13.162;2023-09-30T13:49:10;6.63;;;1.70;;
49834;SDS011;35729;52.090;13.162;2023-09-30T13:51:38;4.05;;;1.25;;
49834;SDS011;35729;52.090;13.162;2023-09-30T13:54:07;7.15;;;1.98;;
49834;SDS011;35729;52.090;13.162;2023-09-30T13:56:38;6.22;;;1.60;;
49834;SDS011;35729;52.090;13.162;2023-09-30T13:59:07;5.03;;;1.42;;
49834;SDS011;35729;52.090;13.162;2023-09-30T14:01:36;7.10;;;2.38;;
49834;SDS011;35729;52.090;13.162;2023-09-30T14:04:06;7.28;;;1.63;;
49834;SDS011;35729;52.090;13.162;2023-09-30T14:06:35;5.88;;;1.63;;
49834;SDS011;35729;52.090;13.162;2023-09-30T14:09:03;4.20;;;1.67;;
49834;SDS011;35729;52.090;13.162;2023-09-30T14:14:09;4.85;;;1.17;;
49834;SDS011;35729;52.090;13.162;2023-09-30T14:16:37;6.35;;;1.30;;
49834;SDS011;35729;52.090;13.162;2023-09-30T14:19:06;6.03;;;1.60;;
49834;SDS011;35729;52.090;13.162;2023-09-30T14:21:34;5.15;;;1.67;;
49834;SDS011;35729;52.090;13.162;2023-09-30T14:24:03;5.90;;;1.95;;
49834;SDS011;35729;52.090;13.162;2023-09-30T14:26:31;6.53;;;1.40;;
49834;SDS011;35729;52.090;13.162;2023-09-30T14:29:02;7.07;;;1.63;;
49834;SDS011;35729;52.090;13.162;2023-09-30T14:31:31;7.90;;;1.55;;
49834;SDS011;35729;52.090;13.162;2023-09-30T14:33:59;5.65;;;1.33;;
49834;SDS011;35729;52.090;13.162;2023-09-30T14:36:30;5.07;;;1.45;;
49834;SDS011;35729;52.090;13.162;2023-09-30T14:38:59;5.57;;;1.30;;
49834;SDS011;35729;52.090;13.162;2023-09-30T14:41:30;6.30;;;1.70;;
49834;SDS011;35729;52.090;13.162;2023-09-30T14:44:00;6.00;;;2.17;;
49834;SDS011;35729;52.090;13.162;2023-09-30T14:46:32;6.32;;;1.40;;
49834;SDS011;35729;52.090;13.162;2023-09-30T14:49:02;4.05;;;1.38;;
49834;SDS011;35729;52.090;13.162;2023-09-30T14:51:31;5.15;;;1.38;;
49834;SDS011;35729;52.090;13.162;2023-09-30T14:53:59;9.00;;;1.52;;
49834;SDS011;35729;52.090;13.162;2023-09-30T14:56:28;7.25;;;1.55;;
49834;SDS011;35729;52.090;13.162;2023-09-30T14:58:56;5.43;;;1.50;;
49834;SDS011;35729;52.090;13.162;2023-09-30T15:01:27;5.18;;;1.77;;
49834;SDS011;35729;52.090;13.162;2023-09-30T15:03:56;5.95;;;1.60;;